createdAt,value
2017-08-08T00:01:49.849Z,3.20
2017-08-08T00:04:17.371Z,3.13
2017-08-08T00:06:44.889Z,2.97
2017-08-08T00:09:12.433Z,2.97
2017-08-08T00:11:40.101Z,3.13
2017-08-08T00:14:08.045Z,3.60
2017-08-08T00:16:35.556Z,2.90
2017-08-08T00:19:03.089Z,3.67
2017-08-08T00:21:30.605Z,3.40
2017-08-08T00:23:58.137Z,3.07
2017-08-08T00:26:25.638Z,3.47
2017-08-08T00:28:53.218Z,3.50
2017-08-08T00:31:20.728Z,3.20
2017-08-08T00:33:48.234Z,3.30
2017-08-08T00:36:16.149Z,3.10
2017-08-08T00:38:43.660Z,3.20
2017-08-08T00:41:11.205Z,3.50
2017-08-08T00:43:38.710Z,3.03
2017-08-08T00:46:06.235Z,3.23
2017-08-08T00:48:33.738Z,3.53
2017-08-08T00:51:01.282Z,2.97
2017-08-08T00:53:28.803Z,3.30
2017-08-08T00:55:56.706Z,3.13
2017-08-08T00:58:24.226Z,3.13
2017-08-08T01:00:52.145Z,3.50
2017-08-08T01:03:19.690Z,2.90
2017-08-08T01:05:47.208Z,2.90
2017-08-08T01:08:15.138Z,3.50
2017-08-08T01:10:42.659Z,2.90
2017-08-08T01:13:10.206Z,2.50
2017-08-08T01:15:37.718Z,3.47
2017-08-08T01:18:05.259Z,3.13
2017-08-08T01:20:32.800Z,3.40
2017-08-08T01:23:00.305Z,3.00
2017-08-08T01:25:27.837Z,3.23
2017-08-08T01:27:55.371Z,2.77
2017-08-08T01:30:22.896Z,3.00
2017-08-08T01:32:50.432Z,3.47
2017-08-08T01:35:17.983Z,3.30
2017-08-08T01:37:45.507Z,2.37
2017-08-08T01:40:13.014Z,3.27
2017-08-08T01:42:40.535Z,3.57
2017-08-08T01:45:08.047Z,3.53
2017-08-08T01:47:35.962Z,3.77
2017-08-08T01:50:03.478Z,2.70
2017-08-08T01:52:31.020Z,3.10
2017-08-08T01:54:58.931Z,3.30
2017-08-08T01:57:26.457Z,3.10
2017-08-08T01:59:54.821Z,2.87
2017-08-08T02:02:23.609Z,3.40
2017-08-08T02:04:51.531Z,2.90
2017-08-08T02:07:19.040Z,3.20
2017-08-08T02:09:46.974Z,3.20
2017-08-08T02:12:14.508Z,3.30
2017-08-08T02:14:42.042Z,3.10
2017-08-08T02:17:09.556Z,3.10
2017-08-08T02:19:37.099Z,2.90
2017-08-08T02:22:04.622Z,3.27
2017-08-08T02:24:32.163Z,2.80
2017-08-08T02:26:59.671Z,3.37
2017-08-08T02:29:27.174Z,3.00
2017-08-08T02:31:54.719Z,3.13
2017-08-08T02:34:22.642Z,3.10
2017-08-08T02:36:50.183Z,3.50
2017-08-08T02:39:17.685Z,3.67
2017-08-08T02:41:45.216Z,3.53
2017-08-08T02:44:12.744Z,3.47
2017-08-08T02:46:40.285Z,3.07
2017-08-08T02:49:08.186Z,3.63
2017-08-08T02:51:35.680Z,3.67
2017-08-08T02:54:03.211Z,3.53
2017-08-08T02:56:30.721Z,3.53
2017-08-08T02:58:58.653Z,3.67
2017-08-08T03:01:26.166Z,3.53
2017-08-08T03:03:53.691Z,3.27
2017-08-08T03:06:21.610Z,3.90
2017-08-08T03:08:49.135Z,3.20
2017-08-08T03:11:16.664Z,3.50
2017-08-08T03:13:44.856Z,3.47
2017-08-08T03:16:12.770Z,3.67
2017-08-08T03:18:40.295Z,3.50
2017-08-08T03:21:07.817Z,3.10
2017-08-08T03:23:35.333Z,3.43
2017-08-08T03:26:02.861Z,3.10
2017-08-08T03:28:30.381Z,3.90
2017-08-08T03:30:57.905Z,2.83
2017-08-08T03:33:25.406Z,3.47
2017-08-08T03:35:52.972Z,3.60
2017-08-08T03:38:20.490Z,3.50
2017-08-08T03:40:48.016Z,4.03
2017-08-08T03:43:15.542Z,3.37
2017-08-08T03:45:43.046Z,3.60
2017-08-08T03:48:10.586Z,3.67
2017-08-08T03:50:38.083Z,3.33
2017-08-08T03:53:05.605Z,3.30
2017-08-08T03:55:33.109Z,3.80
2017-08-08T03:58:00.662Z,3.40
2017-08-08T04:00:28.170Z,3.70
2017-08-08T04:02:56.107Z,3.03
2017-08-08T04:05:23.622Z,3.30
2017-08-08T04:07:51.566Z,3.37
2017-08-08T04:10:19.097Z,3.10
2017-08-08T04:12:46.706Z,4.10
2017-08-08T04:15:14.232Z,3.87
2017-08-08T04:17:42.148Z,3.50
2017-08-08T04:20:09.678Z,3.23
2017-08-08T04:22:37.187Z,3.37
2017-08-08T04:25:04.721Z,4.20
2017-08-08T04:27:32.233Z,3.30
2017-08-08T04:30:00.166Z,4.03
2017-08-08T04:32:27.674Z,3.63
2017-08-08T04:34:55.183Z,3.17
2017-08-08T04:37:23.471Z,3.40
2017-08-08T04:39:51.161Z,3.40
2017-08-08T04:42:18.701Z,3.67
2017-08-08T04:44:46.607Z,3.40
2017-08-08T04:47:14.134Z,3.57
2017-08-08T04:49:42.037Z,3.00
2017-08-08T04:52:09.596Z,3.43
2017-08-08T04:54:37.114Z,3.50
2017-08-08T04:57:04.630Z,2.90
2017-08-08T04:59:32.171Z,3.70
2017-08-08T05:01:59.770Z,4.07
2017-08-08T05:04:27.302Z,3.53
2017-08-08T05:06:54.815Z,4.00
2017-08-08T05:09:23.174Z,4.10
2017-08-08T05:11:51.563Z,3.90
2017-08-08T05:14:19.506Z,3.47
2017-08-08T05:16:47.041Z,3.97
2017-08-08T05:19:14.543Z,3.50
2017-08-08T05:21:42.465Z,3.00
2017-08-08T05:24:09.971Z,3.80
2017-08-08T05:26:37.914Z,3.63
2017-08-08T05:29:05.441Z,3.77
2017-08-08T05:31:32.974Z,3.57
2017-08-08T05:34:00.508Z,3.73
2017-08-08T05:36:28.103Z,3.13
2017-08-08T05:38:55.606Z,4.13
2017-08-08T05:41:23.130Z,3.50
2017-08-08T05:43:50.652Z,3.60
2017-08-08T05:46:18.212Z,3.03
2017-08-08T05:48:45.761Z,3.90
2017-08-08T05:51:13.681Z,3.40
2017-08-08T05:53:41.193Z,3.50
2017-08-08T05:56:08.695Z,3.70
2017-08-08T05:58:36.261Z,3.70
2017-08-08T06:01:03.755Z,3.50
2017-08-08T06:03:31.690Z,4.10
2017-08-08T06:05:59.198Z,3.53
2017-08-08T06:08:26.774Z,4.13
2017-08-08T06:10:54.273Z,3.40
2017-08-08T06:13:22.518Z,3.60
2017-08-08T06:15:50.032Z,3.70
2017-08-08T06:18:17.605Z,3.67
2017-08-08T06:20:45.159Z,4.40
2017-08-08T06:23:12.682Z,3.57
2017-08-08T06:25:40.219Z,3.60
2017-08-08T06:28:07.729Z,4.00
2017-08-08T06:30:35.257Z,3.80
2017-08-08T06:33:02.792Z,4.30
2017-08-08T06:35:30.309Z,3.10
2017-08-08T06:37:57.888Z,3.50
2017-08-08T06:40:25.410Z,3.10
2017-08-08T06:42:53.310Z,3.97
2017-08-08T06:45:20.847Z,3.83
2017-08-08T06:47:48.470Z,4.00
2017-08-08T06:50:15.992Z,3.90
2017-08-08T06:52:43.548Z,3.93
2017-08-08T06:55:11.057Z,3.60
2017-08-08T06:57:38.582Z,3.60
2017-08-08T07:00:06.091Z,3.70
2017-08-08T07:02:33.677Z,3.23
2017-08-08T07:05:01.236Z,3.60
2017-08-08T07:07:28.764Z,3.60
2017-08-08T07:09:56.684Z,3.20
2017-08-08T07:12:24.338Z,3.33
2017-08-08T07:14:51.868Z,3.97
2017-08-08T07:17:19.405Z,3.40
2017-08-08T07:19:47.333Z,3.73
2017-08-08T07:22:14.850Z,3.90
2017-08-08T07:24:42.397Z,3.40
2017-08-08T07:27:10.855Z,3.50
2017-08-08T07:29:38.797Z,3.20
2017-08-08T07:32:06.330Z,3.43
2017-08-08T07:34:33.915Z,3.60
2017-08-08T07:37:01.475Z,3.80
2017-08-08T07:39:29.009Z,4.07
2017-08-08T07:41:56.568Z,4.00
2017-08-08T07:44:24.173Z,3.60
2017-08-08T07:46:52.168Z,3.80
2017-08-08T07:49:19.673Z,3.80
2017-08-08T07:51:47.223Z,4.00
2017-08-08T07:54:14.740Z,3.93
2017-08-08T07:56:42.315Z,4.10
2017-08-08T07:59:09.831Z,3.90
2017-08-08T08:01:37.782Z,4.13
2017-08-08T08:04:05.323Z,3.93
2017-08-08T08:06:32.858Z,3.90
2017-08-08T08:09:00.362Z,3.93
2017-08-08T08:11:27.934Z,3.93
2017-08-08T08:13:55.431Z,3.50
2017-08-08T08:16:23.213Z,4.03
2017-08-08T08:18:50.754Z,4.10
2017-08-08T08:21:18.301Z,4.27
2017-08-08T08:23:45.835Z,4.07
2017-08-08T08:26:13.734Z,3.53
2017-08-08T08:28:41.298Z,4.00
2017-08-08T08:31:08.823Z,4.00
2017-08-08T08:33:36.357Z,4.17
2017-08-08T08:36:03.874Z,4.67
2017-08-08T08:38:31.467Z,4.97
2017-08-08T08:40:58.999Z,3.90
2017-08-08T08:43:26.501Z,3.43
2017-08-08T08:45:54.099Z,4.50
2017-08-08T08:48:21.937Z,4.50
2017-08-08T08:50:49.485Z,4.63
2017-08-08T08:53:17.000Z,5.00
2017-08-08T08:55:44.587Z,4.97
2017-08-08T08:58:12.135Z,4.83
2017-08-08T09:00:39.671Z,4.37
2017-08-08T09:03:07.245Z,4.50
2017-08-08T09:05:34.798Z,4.53
2017-08-08T09:08:02.344Z,4.73
2017-08-08T09:10:29.864Z,4.87
2017-08-08T09:12:57.463Z,4.60
2017-08-08T09:15:25.001Z,4.23
2017-08-08T09:17:53.298Z,4.33
2017-08-08T09:20:20.812Z,4.90
2017-08-08T09:22:48.385Z,4.50
2017-08-08T09:25:15.975Z,4.50
2017-08-08T09:27:43.529Z,4.67
2017-08-08T09:30:11.074Z,4.20
2017-08-08T09:32:39.252Z,5.10
2017-08-08T09:35:06.790Z,4.80
2017-08-08T09:37:34.370Z,5.30
2017-08-08T09:40:01.904Z,4.60
2017-08-08T09:42:29.519Z,4.70
2017-08-08T09:44:57.110Z,4.37
2017-08-08T09:47:24.641Z,5.10
2017-08-08T09:49:52.252Z,5.07
2017-08-08T09:52:19.824Z,5.17
2017-08-08T09:54:47.369Z,5.57
2017-08-08T09:57:14.905Z,5.27
2017-08-08T09:59:42.463Z,5.13
2017-08-08T10:02:10.382Z,5.23
2017-08-08T10:04:37.964Z,5.50
2017-08-08T10:07:05.914Z,5.93
2017-08-08T10:09:33.487Z,6.40
2017-08-08T10:12:00.998Z,5.77
2017-08-08T10:14:28.518Z,5.60
2017-08-08T10:16:56.037Z,5.30
2017-08-08T10:19:23.613Z,6.57
2017-08-08T10:21:51.858Z,6.70
2017-08-08T10:24:19.415Z,6.23
2017-08-08T10:26:46.942Z,6.87
2017-08-08T10:29:14.470Z,7.50
2017-08-08T10:31:42.043Z,7.73
2017-08-08T10:34:09.551Z,7.10
2017-08-08T10:36:37.687Z,7.70
2017-08-08T10:39:05.211Z,7.97
2017-08-08T10:41:32.858Z,8.17
2017-08-08T10:44:00.389Z,7.50
2017-08-08T10:46:27.913Z,9.17
2017-08-08T10:48:55.569Z,8.60
2017-08-08T10:51:23.846Z,8.23
2017-08-08T10:53:51.765Z,9.37
2017-08-08T10:56:19.439Z,9.40
2017-08-08T10:58:46.985Z,10.50
2017-08-08T11:01:14.539Z,9.90
2017-08-08T11:03:42.170Z,10.90
2017-08-08T11:06:09.759Z,10.70
2017-08-08T11:08:37.324Z,9.80
2017-08-08T11:11:04.913Z,12.30
2017-08-08T11:13:32.496Z,11.63
2017-08-08T11:16:00.416Z,13.60
2017-08-08T11:18:28.119Z,13.37
2017-08-08T11:20:55.662Z,12.97
2017-08-08T11:23:23.203Z,13.57
2017-08-08T11:25:50.763Z,13.43
2017-08-08T11:28:18.288Z,14.90
2017-08-08T11:30:45.854Z,16.30
2017-08-08T11:33:13.429Z,14.30
2017-08-08T11:35:41.374Z,16.93
2017-08-08T11:38:08.924Z,15.10
2017-08-08T11:40:36.478Z,15.37
2017-08-08T11:43:04.027Z,14.30
2017-08-08T11:45:31.576Z,15.90
2017-08-08T11:47:59.111Z,14.73
2017-08-08T11:50:26.639Z,14.33
2017-08-08T11:52:54.189Z,13.13
2017-08-08T11:55:21.739Z,14.90
2017-08-08T11:57:49.290Z,18.40
2017-08-08T12:00:16.831Z,17.00
2017-08-08T12:02:44.421Z,14.00
2017-08-08T12:05:11.992Z,16.93
2017-08-08T12:07:39.536Z,16.83
2017-08-08T12:10:07.093Z,12.03
2017-08-08T12:12:34.641Z,13.60
2017-08-08T12:15:02.218Z,11.97
2017-08-08T12:17:29.758Z,15.00
2017-08-08T12:19:57.293Z,11.50
2017-08-08T12:22:24.845Z,11.50
2017-08-08T12:24:52.397Z,12.63
2017-08-08T12:27:20.308Z,12.03
2017-08-08T12:29:47.985Z,10.03
2017-08-08T12:32:15.957Z,11.17
2017-08-08T12:34:43.539Z,11.60
2017-08-08T12:37:11.085Z,13.50
2017-08-08T12:39:38.603Z,12.50
2017-08-08T12:42:06.167Z,13.60
2017-08-08T12:44:33.699Z,10.80
2017-08-08T12:47:01.707Z,12.70
2017-08-08T12:49:29.258Z,12.20
2017-08-08T12:51:56.792Z,12.50
2017-08-08T12:54:24.317Z,10.70
2017-08-08T12:56:51.914Z,10.90
2017-08-08T12:59:19.445Z,11.83
2017-08-08T13:01:46.961Z,10.77
2017-08-08T13:04:14.497Z,12.13
2017-08-08T13:06:42.040Z,13.83
2017-08-08T13:09:09.599Z,14.30
2017-08-08T13:11:37.141Z,14.10
2017-08-08T13:14:04.767Z,15.90
2017-08-08T13:16:32.357Z,15.07
2017-08-08T13:18:59.972Z,13.67
2017-08-08T13:21:27.989Z,14.10
2017-08-08T13:23:55.580Z,15.27
2017-08-08T13:26:23.091Z,16.13
2017-08-08T13:28:50.649Z,15.23
2017-08-08T13:31:18.234Z,15.23
2017-08-08T13:33:45.806Z,15.00
2017-08-08T13:36:13.349Z,15.67
2017-08-08T13:38:40.881Z,16.33
2017-08-08T13:41:08.463Z,15.73
2017-08-08T13:43:36.023Z,15.67
2017-08-08T13:46:03.621Z,16.23
2017-08-08T13:48:31.211Z,18.43
2017-08-08T13:50:58.728Z,15.17
2017-08-08T13:53:26.299Z,19.33
2017-08-08T13:55:53.826Z,18.97
2017-08-08T13:58:21.386Z,21.53
2017-08-08T14:00:48.949Z,21.33
2017-08-08T14:03:16.543Z,26.77
2017-08-08T14:05:44.164Z,26.93
2017-08-08T14:08:11.727Z,22.77
2017-08-08T14:10:39.244Z,25.30
2017-08-08T14:13:06.827Z,23.33
2017-08-08T14:15:34.493Z,20.77
2017-08-08T14:18:01.998Z,24.80
2017-08-08T14:20:29.703Z,20.47
2017-08-08T14:22:57.353Z,20.57
2017-08-08T14:25:24.973Z,22.73
2017-08-08T14:27:52.969Z,18.63
2017-08-08T14:30:22.137Z,17.70
2017-08-08T14:32:49.683Z,15.70
2017-08-08T14:35:17.209Z,11.67
2017-08-08T14:37:45.268Z,12.77
2017-08-08T14:40:12.893Z,13.43
2017-08-08T14:42:40.499Z,9.93
2017-08-08T14:45:08.661Z,11.60
2017-08-08T14:47:36.806Z,8.87
2017-08-08T14:50:04.322Z,9.40
2017-08-08T14:52:32.044Z,10.40
2017-08-08T14:54:59.627Z,10.80
2017-08-08T14:57:27.820Z,10.60
2017-08-08T14:59:55.424Z,12.13
2017-08-08T15:02:23.533Z,9.47
2017-08-08T15:04:51.256Z,9.17
2017-08-08T15:07:18.863Z,7.80
2017-08-08T15:09:46.429Z,7.83
2017-08-08T15:12:14.066Z,7.97
2017-08-08T15:14:41.993Z,7.83
2017-08-08T15:17:09.516Z,7.73
2017-08-08T15:19:37.083Z,7.73
2017-08-08T15:22:04.624Z,8.90
2017-08-08T15:24:32.239Z,7.77
2017-08-08T15:26:59.742Z,8.20
2017-08-08T15:29:27.311Z,7.00
2017-08-08T15:31:54.851Z,7.27
2017-08-08T15:34:23.618Z,6.37
2017-08-08T15:36:51.161Z,6.50
2017-08-08T15:39:18.684Z,7.67
2017-08-08T15:41:46.229Z,7.20
2017-08-08T15:44:13.747Z,6.80
2017-08-08T15:46:41.294Z,6.93
2017-08-08T15:49:08.810Z,6.80
2017-08-08T15:51:36.359Z,6.47
2017-08-08T15:54:03.863Z,6.07
2017-08-08T15:56:31.427Z,6.20
2017-08-08T15:58:58.958Z,6.50
2017-08-08T16:01:26.465Z,6.93
2017-08-08T16:03:54.052Z,6.17
2017-08-08T16:06:22.036Z,5.83
2017-08-08T16:08:49.566Z,5.70
2017-08-08T16:11:17.073Z,6.80
2017-08-08T16:13:44.644Z,5.60
2017-08-08T16:16:12.194Z,6.00
2017-08-08T16:18:39.731Z,5.93
2017-08-08T16:21:07.302Z,5.73
2017-08-08T16:23:35.276Z,6.10
2017-08-08T16:26:02.803Z,6.10
2017-08-08T16:28:30.316Z,5.30
2017-08-08T16:30:58.287Z,3.90
2017-08-08T16:33:25.810Z,3.70
2017-08-08T16:35:53.355Z,3.80
2017-08-08T16:38:20.948Z,3.30
2017-08-08T16:40:48.490Z,3.13
2017-08-08T16:43:16.032Z,3.20
2017-08-08T16:45:43.599Z,3.17
2017-08-08T16:48:11.147Z,3.80
2017-08-08T16:50:38.704Z,4.57
2017-08-08T16:53:06.243Z,5.13
2017-08-08T16:55:33.796Z,5.20
2017-08-08T16:58:01.332Z,6.30
2017-08-08T17:00:28.858Z,5.80
2017-08-08T17:02:56.401Z,7.10
2017-08-08T17:05:23.965Z,6.43
2017-08-08T17:07:51.502Z,6.80
2017-08-08T17:10:19.059Z,7.40
2017-08-08T17:12:46.606Z,7.30
2017-08-08T17:15:14.173Z,7.47
2017-08-08T17:17:41.699Z,7.80
2017-08-08T17:20:09.628Z,7.73
2017-08-08T17:22:37.196Z,7.13
2017-08-08T17:25:04.741Z,7.70
2017-08-08T17:27:32.320Z,8.00
2017-08-08T17:29:59.901Z,7.30
2017-08-08T17:32:27.436Z,7.50
2017-08-08T17:34:54.999Z,6.97
2017-08-08T17:37:23.092Z,8.10
2017-08-08T17:39:51.023Z,7.20
2017-08-08T17:42:18.535Z,5.27
2017-08-08T17:44:46.112Z,4.93
2017-08-08T17:47:13.617Z,4.60
2017-08-08T17:49:41.128Z,4.27
2017-08-08T17:52:08.700Z,3.53
2017-08-08T17:54:36.248Z,3.77
2017-08-08T17:57:03.817Z,4.40
2017-08-08T17:59:31.358Z,3.47
2017-08-08T18:01:58.897Z,3.40
2017-08-08T18:04:26.415Z,2.80
2017-08-08T18:07:04.380Z,2.87
2017-08-08T18:09:33.904Z,2.83
2017-08-08T18:12:01.656Z,3.20
2017-08-08T18:14:29.201Z,2.97
2017-08-08T18:16:56.780Z,3.63
2017-08-08T18:19:24.338Z,4.07
2017-08-08T18:21:51.858Z,4.70
2017-08-08T18:24:19.403Z,6.37
2017-08-08T18:26:46.918Z,5.83
2017-08-08T18:29:14.450Z,6.23
2017-08-08T18:31:41.981Z,6.40
2017-08-08T18:34:09.543Z,5.80
2017-08-08T18:36:37.097Z,5.40
2017-08-08T18:39:04.738Z,5.13
2017-08-08T18:41:32.265Z,5.20
2017-08-08T18:43:59.834Z,5.20
2017-08-08T18:46:27.362Z,6.40
2017-08-08T18:48:54.934Z,5.00
2017-08-08T18:51:22.927Z,5.80
2017-08-08T18:53:50.433Z,6.37
2017-08-08T18:56:18.016Z,5.13
2017-08-08T18:58:45.542Z,5.37
2017-08-08T19:01:13.237Z,6.30
2017-08-08T19:03:40.758Z,6.50
2017-08-08T19:06:08.398Z,6.60
2017-08-08T19:08:36.324Z,6.53
2017-08-08T19:11:03.876Z,6.70
2017-08-08T19:13:31.527Z,6.83
2017-08-08T19:15:59.190Z,6.63
2017-08-08T19:18:26.737Z,7.50
2017-08-08T19:20:54.281Z,7.87
2017-08-08T19:23:21.832Z,8.90
2017-08-08T19:25:49.730Z,7.90
2017-08-08T19:28:17.272Z,8.20
2017-08-08T19:30:44.791Z,8.43
2017-08-08T19:33:12.341Z,8.40
2017-08-08T19:35:39.880Z,8.40
2017-08-08T19:38:07.413Z,7.30
2017-08-08T19:40:34.933Z,8.60
2017-08-08T19:43:02.895Z,8.23
2017-08-08T19:45:30.848Z,9.07
2017-08-08T19:47:58.357Z,9.77
2017-08-08T19:50:26.005Z,8.80
2017-08-08T19:52:54.157Z,9.50
2017-08-08T19:55:22.081Z,9.87
2017-08-08T19:57:49.587Z,10.03
2017-08-08T20:00:17.120Z,8.90
2017-08-08T20:02:44.639Z,9.57
2017-08-08T20:05:12.191Z,10.03
2017-08-08T20:07:39.752Z,9.70
2017-08-08T20:10:07.313Z,9.80
2017-08-08T20:12:34.902Z,10.30
2017-08-08T20:15:02.422Z,9.90
2017-08-08T20:17:29.977Z,10.80
2017-08-08T20:19:57.511Z,10.60
2017-08-08T20:22:25.446Z,12.10
2017-08-08T20:24:53.830Z,13.70
2017-08-08T20:27:22.182Z,12.30
2017-08-08T20:29:49.698Z,11.60
2017-08-08T20:32:17.255Z,13.33
2017-08-08T20:34:44.802Z,16.70
2017-08-08T20:37:12.733Z,15.70
2017-08-08T20:39:40.270Z,18.13
2017-08-08T20:42:07.800Z,18.97
2017-08-08T20:44:35.335Z,19.60
2017-08-08T20:47:02.865Z,16.17
2017-08-08T20:49:30.399Z,18.90
2017-08-08T20:51:57.931Z,19.60
2017-08-08T20:54:25.480Z,20.57
2017-08-08T20:56:54.154Z,21.97
2017-08-08T20:59:22.185Z,20.73
2017-08-08T21:01:49.715Z,20.70
2017-08-08T21:04:17.235Z,22.60
2017-08-08T21:06:44.863Z,23.13
2017-08-08T21:09:12.408Z,19.97
2017-08-08T21:11:39.972Z,20.90
2017-08-08T21:14:07.767Z,25.20
2017-08-08T21:16:35.310Z,22.20
2017-08-08T21:19:02.827Z,23.67
2017-08-08T21:21:30.398Z,24.50
2017-08-08T21:23:58.460Z,24.30
2017-08-08T21:26:26.402Z,26.50
2017-08-08T21:28:53.933Z,26.07
2017-08-08T21:31:21.510Z,27.57
2017-08-08T21:33:49.041Z,28.40
2017-08-08T21:36:16.569Z,27.90
2017-08-08T21:38:44.119Z,28.27
2017-08-08T21:41:11.652Z,29.07
2017-08-08T21:43:39.208Z,30.03
2017-08-08T21:46:06.802Z,32.90
2017-08-08T21:48:34.351Z,33.10
2017-08-08T21:51:01.869Z,27.30
2017-08-08T21:53:29.477Z,26.87
2017-08-08T21:55:56.994Z,27.63
2017-08-08T21:58:24.518Z,29.40
2017-08-08T22:00:52.068Z,31.30
2017-08-08T22:03:19.590Z,30.97
2017-08-08T22:05:47.126Z,30.10
2017-08-08T22:08:14.684Z,32.20
2017-08-08T22:10:42.622Z,31.70
2017-08-08T22:13:10.143Z,34.67
2017-08-08T22:15:37.690Z,31.90
2017-08-08T22:18:05.206Z,34.70
2017-08-08T22:20:32.789Z,34.30
2017-08-08T22:23:00.712Z,34.43
2017-08-08T22:25:28.638Z,36.77
2017-08-08T22:27:56.195Z,37.90
2017-08-08T22:30:24.388Z,40.07
2017-08-08T22:32:52.517Z,39.47
2017-08-08T22:35:20.060Z,43.57
2017-08-08T22:37:47.598Z,39.97
2017-08-08T22:40:15.250Z,40.43
2017-08-08T22:42:42.816Z,37.47
2017-08-08T22:45:10.366Z,39.83
2017-08-08T22:47:37.902Z,35.00
2017-08-08T22:50:05.438Z,35.67
2017-08-08T22:52:33.369Z,35.00
2017-08-08T22:55:00.881Z,37.50
2017-08-08T22:57:28.410Z,36.70
2017-08-08T22:59:55.940Z,37.13
2017-08-08T23:02:23.468Z,35.00
2017-08-08T23:04:51.018Z,38.90
2017-08-08T23:07:18.549Z,38.80
2017-08-08T23:09:46.133Z,37.23
2017-08-08T23:12:13.653Z,35.07
2017-08-08T23:14:41.206Z,38.40
2017-08-08T23:17:08.740Z,38.80
2017-08-08T23:19:44.296Z,37.10
2017-08-08T23:22:11.819Z,35.57
2017-08-08T23:24:39.449Z,38.03
2017-08-08T23:27:07.520Z,37.13
2017-08-08T23:29:35.044Z,37.70
2017-08-08T23:32:02.625Z,35.53
2017-08-08T23:34:30.158Z,34.90
2017-08-08T23:36:57.731Z,34.30
2017-08-08T23:39:25.283Z,35.33
2017-08-08T23:41:52.822Z,35.17
2017-08-08T23:44:20.373Z,35.23
2017-08-08T23:46:47.906Z,32.47
2017-08-08T23:49:15.445Z,31.07
2017-08-08T23:51:43.411Z,29.57
2017-08-08T23:54:10.946Z,31.03
2017-08-08T23:56:38.479Z,28.23
2017-08-08T23:59:06.014Z,29.97
